Time;durP1;ratioP1;P1;durP2;ratioP2;P2;SDS_P1;SDS_P2;PMS_P1;PMS_P2;Temp;Humidity;BMP_temperature;BMP_pressure;BME280_temperature;BME280_humidity;BME280_pressure;Samples;Min_cycle;Max_cycle;Signal;HPM_P1;HPM_P2
2022/06/25 00:01:32;;;;;;;1.30;1.20;;;19.50;99.90;;;;;;4938020;29;20669;-85
2022/06/25 00:03:59;;;;;;;1.00;0.93;;;19.50;99.90;;;;;;4934250;29;20722;-85
2022/06/25 00:06:26;;;;;;;1.47;0.97;;;19.40;99.90;;;;;;4935722;29;20619;-85
2022/06/25 00:08:52;;;;;;;1.83;1.30;;;19.40;99.90;;;;;;4932456;29;20631;-85
2022/06/25 00:14:07;;;;;;;1.00;0.80;;;19.40;99.90;;;;;;4935381;29;20618;-88
2022/06/25 00:16:34;;;;;;;2.00;1.27;;;19.40;99.90;;;;;;4934596;29;20654;-91
2022/06/25 00:19:01;;;;;;;0.97;0.93;;;19.40;99.90;;;;;;4942412;29;21217;-85
2022/06/25 00:21:28;;;;;;;1.37;1.20;;;19.30;99.90;;;;;;4932714;29;20666;-84
2022/06/25 00:23:55;;;;;;;1.37;1.07;;;19.40;99.90;;;;;;4933317;29;20631;-84
2022/06/25 00:26:23;;;;;;;1.13;1.03;;;19.40;99.90;;;;;;4930028;29;21230;-84
2022/06/25 00:28:50;;;;;;;1.50;1.27;;;19.40;99.90;;;;;;4929973;29;20639;-85
2022/06/25 00:31:16;;;;;;;4.03;1.47;;;19.40;99.90;;;;;;4932287;29;20692;-84
2022/06/25 00:33:43;;;;;;;3.50;1.20;;;19.40;99.90;;;;;;4931241;29;20640;-83
2022/06/25 00:36:10;;;;;;;3.73;1.07;;;19.40;99.90;;;;;;4931343;29;21210;-84
2022/06/25 00:38:37;;;;;;;3.33;1.33;;;19.30;99.90;;;;;;4929866;29;21174;-84
2022/06/25 00:41:03;;;;;;;1.40;1.30;;;19.30;99.90;;;;;;4929309;29;20686;-84
2022/06/25 00:43:32;;;;;;;1.60;1.50;;;19.30;99.90;;;;;;4931589;29;20631;-85
2022/06/25 00:45:59;;;;;;;1.00;0.80;;;18.80;99.90;;;;;;4932294;29;20632;-84
2022/06/25 00:48:25;;;;;;;1.47;1.00;;;18.80;99.90;;;;;;4936027;29;20635;-85
2022/06/25 00:50:57;;;;;;;1.40;1.30;;;18.90;99.90;;;;;;4932224;29;21222;-84
2022/06/25 00:53:30;;;;;;;2.97;1.13;;;18.70;99.90;;;;;;4929162;29;20622;-85
2022/06/25 00:55:58;;;;;;;0.93;0.93;;;18.60;99.90;;;;;;4932104;29;21001;-84
2022/06/25 00:58:29;;;;;;;1.90;1.23;;;18.70;99.90;;;;;;4932599;29;20647;-85
2022/06/25 01:00:59;;;;;;;1.30;1.10;;;18.90;99.90;;;;;;4932221;29;20690;-85
2022/06/25 01:03:26;;;;;;;1.33;1.10;;;19.00;99.90;;;;;;4932085;29;20642;-85
2022/06/25 01:05:53;;;;;;;4.93;1.50;;;19.00;99.90;;;;;;4929924;29;20635;-84
2022/06/25 01:08:20;;;;;;;2.50;1.00;;;19.00;99.90;;;;;;4928824;29;20634;-85
2022/06/25 01:10:47;;;;;;;1.33;0.97;;;19.10;99.90;;;;;;4930179;29;20663;-84
2022/06/25 01:13:14;;;;;;;1.23;0.90;;;19.00;99.90;;;;;;4929895;29;20642;-85
2022/06/25 01:15:41;;;;;;;1.37;0.80;;;19.10;99.90;;;;;;4929394;29;20650;-84
2022/06/25 01:18:09;;;;;;;2.00;1.27;;;19.10;99.90;;;;;;4931320;29;20631;-87
2022/06/25 01:20:36;;;;;;;2.07;0.90;;;19.10;99.90;;;;;;4934251;28;20698;-87
2022/06/25 01:23:04;;;;;;;1.33;0.90;;;19.00;99.90;;;;;;4931180;29;20631;-85
2022/06/25 01:25:34;;;;;;;2.53;1.00;;;19.00;99.90;;;;;;4932765;29;20993;-86
2022/06/25 01:28:01;;;;;;;1.20;1.10;;;19.10;99.90;;;;;;4930669;29;21257;-86
2022/06/25 01:30:28;;;;;;;1.53;1.43;;;19.10;99.90;;;;;;4930551;29;20659;-85
2022/06/25 01:32:55;;;;;;;2.03;1.27;;;19.00;99.90;;;;;;4930680;29;21399;-87
2022/06/25 01:35:22;;;;;;;2.50;1.10;;;18.90;99.90;;;;;;4929100;29;20661;-86
2022/06/25 01:37:49;;;;;;;1.97;1.17;;;19.00;99.90;;;;;;4931025;29;21084;-86
2022/06/25 01:40:17;;;;;;;1.53;1.03;;;19.00;99.90;;;;;;4930054;29;20705;-86
2022/06/25 01:42:59;;;;;;;0.80;0.80;;;19.00;99.90;;;;;;4929387;29;20686;-86
2022/06/25 01:45:26;;;;;;;1.90;1.30;;;18.90;99.90;;;;;;4926344;29;21240;-85
2022/06/25 01:47:53;;;;;;;1.20;1.10;;;18.90;99.90;;;;;;4930878;29;20643;-85
2022/06/25 01:50:20;;;;;;;0.93;0.93;;;18.90;99.90;;;;;;4931115;29;20651;-85
2022/06/25 01:52:47;;;;;;;4.17;1.37;;;18.90;99.90;;;;;;4930319;29;21307;-84
2022/06/25 01:55:14;;;;;;;1.57;1.10;;;18.80;99.90;;;;;;4929482;29;21360;-85
2022/06/25 01:57:43;;;;;;;1.27;1.17;;;18.80;99.90;;;;;;4926740;29;20675;-84
2022/06/25 02:00:12;;;;;;;1.50;1.40;;;18.90;99.90;;;;;;4929173;29;20690;-85
2022/06/25 02:02:41;;;;;;;2.30;1.93;;;18.90;99.90;;;;;;4929209;29;20639;-84
2022/06/25 02:05:09;;;;;;;0.93;0.80;;;18.90;99.90;;;;;;4929843;29;20650;-84
2022/06/25 02:07:35;;;;;;;3.23;0.90;;;18.90;99.90;;;;;;4930323;29;20646;-85
2022/06/25 02:10:02;;;;;;;2.43;1.37;;;18.80;99.90;;;;;;4929643;29;21600;-84
2022/06/25 02:12:29;;;;;;;1.47;1.20;;;18.60;99.90;;;;;;4928961;29;20666;-86
2022/06/25 02:14:57;;;;;;;1.20;1.10;;;18.70;99.90;;;;;;4929175;29;20643;-85
2022/06/25 02:17:24;;;;;;;2.60;0.90;;;18.70;99.90;;;;;;4929636;29;20657;-84
2022/06/25 02:19:51;;;;;;;3.47;1.37;;;18.70;99.90;;;;;;4927606;28;20677;-84
2022/06/25 02:22:17;;;;;;;2.03;1.27;;;18.70;99.90;;;;;;4929957;29;20722;-84
2022/06/25 02:24:45;;;;;;;2.93;1.43;;;18.70;99.90;;;;;;4933082;29;20639;-84
2022/06/25 02:27:12;;;;;;;3.03;0.97;;;18.70;99.90;;;;;;4931730;29;20644;-87
2022/06/25 02:29:38;;;;;;;1.63;1.23;;;18.60;99.90;;;;;;4933437;29;20666;-89
2022/06/25 02:32:07;;;;;;;1.33;1.10;;;18.60;99.90;;;;;;4933599;29;20635;-87
2022/06/25 02:34:34;;;;;;;8.77;2.00;;;18.70;99.90;;;;;;4933259;29;20681;-87
2022/06/25 02:37:01;;;;;;;4.33;1.57;;;18.70;99.90;;;;;;4934935;29;20642;-89
2022/06/25 02:39:28;;;;;;;1.60;1.03;;;18.70;99.90;;;;;;4938479;29;20653;-88
2022/06/25 02:41:54;;;;;;;1.30;1.20;;;18.60;99.90;;;;;;4934853;29;20680;-88
2022/06/25 02:44:21;;;;;;;5.60;1.03;;;18.60;99.90;;;;;;4931379;29;20646;-89
2022/06/25 02:46:48;;;;;;;1.30;1.20;;;18.60;99.90;;;;;;4933102;29;20636;-88
2022/06/25 02:49:16;;;;;;;1.10;1.00;;;18.50;99.90;;;;;;4938778;29;20645;-88
2022/06/25 02:51:43;;;;;;;0.97;0.93;;;18.50;99.90;;;;;;4934326;29;20631;-89
2022/06/25 02:54:10;;;;;;;1.33;1.20;;;18.40;99.90;;;;;;4935114;29;20630;-89
2022/06/25 02:59:21;;;;;;;2.37;1.10;;;18.50;99.90;;;;;;4928208;29;20649;-89
2022/06/25 03:01:48;;;;;;;4.73;0.90;;;18.50;99.90;;;;;;4934952;29;21304;-89
2022/06/25 03:04:16;;;;;;;2.93;1.13;;;18.40;99.90;;;;;;4934840;29;20645;-89
2022/06/25 03:06:43;;;;;;;3.53;1.30;;;18.40;99.90;;;;;;4936525;29;20702;-84
2022/06/25 03:09:10;;;;;;;2.87;1.30;;;18.30;99.90;;;;;;4932022;29;21362;-84
2022/06/25 03:11:37;;;;;;;1.20;1.00;;;18.20;99.90;;;;;;4933128;29;20724;-84
2022/06/25 03:14:03;;;;;;;2.37;1.50;;;18.20;99.90;;;;;;4931860;29;20642;-84
2022/06/25 03:16:31;;;;;;;5.60;1.70;;;18.10;99.90;;;;;;4932183;29;20642;-83
2022/06/25 03:18:58;;;;;;;1.40;1.30;;;17.90;99.90;;;;;;4933052;29;20647;-84
2022/06/25 03:21:26;;;;;;;3.83;3.53;;;18.10;99.90;;;;;;4933171;28;20687;-84
2022/06/25 03:23:53;;;;;;;4.20;2.27;;;18.20;99.90;;;;;;4931920;29;20643;-84
2022/06/25 03:26:20;;;;;;;2.40;1.77;;;18.20;99.90;;;;;;4933341;29;20635;-84
2022/06/25 03:28:47;;;;;;;3.07;1.40;;;18.30;99.90;;;;;;4932370;29;20641;-84
2022/06/25 03:31:14;;;;;;;1.67;1.33;;;18.20;99.90;;;;;;4932791;29;20857;-84
2022/06/25 03:33:41;;;;;;;1.70;1.00;;;18.10;99.90;;;;;;4928595;29;20662;-83
2022/06/25 03:36:08;;;;;;;2.07;1.10;;;18.20;99.90;;;;;;4930671;29;20643;-84
2022/06/25 03:38:36;;;;;;;2.93;1.33;;;18.10;99.90;;;;;;4930309;29;20639;-83
2022/06/25 03:43:49;;;;;;;4.63;1.20;;;18.20;99.90;;;;;;4931629;29;20746;-83
2022/06/25 03:46:16;;;;;;;2.23;1.10;;;18.20;99.90;;;;;;4930827;29;20722;-83
2022/06/25 03:48:43;;;;;;;1.50;1.40;;;18.20;99.90;;;;;;4930984;29;20866;-83
2022/06/25 03:51:09;;;;;;;2.87;1.30;;;18.30;99.90;;;;;;4930356;29;20655;-83
2022/06/25 03:53:38;;;;;;;2.00;0.90;;;18.30;99.90;;;;;;4929463;29;20642;-82
2022/06/25 03:56:05;;;;;;;2.50;1.13;;;18.30;99.90;;;;;;4930874;29;20722;-82
2022/06/25 03:58:32;;;;;;;2.97;1.33;;;18.30;99.90;;;;;;4930367;29;20661;-82
2022/06/25 04:00:58;;;;;;;2.40;0.90;;;18.30;99.90;;;;;;4932483;29;20679;-82
2022/06/25 04:03:25;;;;;;;4.53;1.10;;;18.30;99.90;;;;;;4930520;29;20638;-82
2022/06/25 04:05:52;;;;;;;1.90;1.00;;;18.20;99.90;;;;;;4931188;29;20650;-82
2022/06/25 04:08:19;;;;;;;1.57;1.10;;;18.20;99.90;;;;;;4927844;29;20627;-82
2022/06/25 04:10:47;;;;;;;1.70;0.90;;;18.00;99.90;;;;;;4931230;29;21284;-82
2022/06/25 04:13:14;;;;;;;1.20;1.10;;;18.10;99.90;;;;;;4930657;28;20627;-82
2022/06/25 04:15:41;;;;;;;2.10;1.17;;;18.10;99.90;;;;;;4927948;29;20634;-82
2022/06/25 04:18:08;;;;;;;1.77;1.10;;;18.20;99.90;;;;;;4926470;29;20655;-82
2022/06/25 04:20:35;;;;;;;1.23;1.00;;;18.30;99.90;;;;;;4930993;28;20694;-82
2022/06/25 04:23:02;;;;;;;1.40;1.30;;;18.30;99.90;;;;;;4929199;29;20643;-82
2022/06/25 04:25:30;;;;;;;1.90;1.10;;;18.40;99.90;;;;;;4930632;29;20634;-82
2022/06/25 04:30:43;;;;;;;4.47;1.20;;;18.40;99.90;;;;;;4926321;29;20810;-83
2022/06/25 04:33:09;;;;;;;1.83;1.10;;;18.40;99.90;;;;;;4931830;29;20692;-87
2022/06/25 04:35:36;;;;;;;4.20;1.10;;;18.30;99.90;;;;;;4931208;29;20635;-87
2022/06/25 04:38:03;;;;;;;2.77;1.40;;;18.30;99.90;;;;;;4929216;29;20634;-86
2022/06/25 04:40:30;;;;;;;5.80;1.30;;;18.40;99.90;;;;;;4930545;29;20682;-87
2022/06/25 04:42:58;;;;;;;7.97;2.03;;;18.30;99.90;;;;;;4932170;29;20639;-86
2022/06/25 04:45:26;;;;;;;2.67;1.53;;;18.40;99.90;;;;;;4932064;29;20997;-87
2022/06/25 04:47:52;;;;;;;3.53;1.30;;;18.50;99.90;;;;;;4924281;29;20640;-86
2022/06/25 04:50:19;;;;;;;2.47;1.40;;;18.50;99.90;;;;;;4924798;29;20651;-87
2022/06/25 04:52:46;;;;;;;2.43;1.57;;;18.60;99.90;;;;;;4930229;29;20611;-86
2022/06/25 04:55:13;;;;;;;1.63;1.53;;;18.20;99.90;;;;;;4930482;29;20988;-86
2022/06/25 04:57:40;;;;;;;1.80;1.70;;;17.40;99.90;;;;;;4929485;29;20634;-86
2022/06/25 05:00:11;;;;;;;2.03;1.50;;;17.50;99.90;;;;;;4931096;29;20671;-86
2022/06/25 05:02:38;;;;;;;1.10;1.10;;;17.90;99.90;;;;;;4929961;29;21088;-88
2022/06/25 05:05:06;;;;;;;1.43;1.10;;;18.20;99.90;;;;;;4929563;29;20634;-87
2022/06/25 05:07:43;;;;;;;1.43;1.33;;;18.30;99.90;;;;;;5119009;27;20784;-87
2022/06/25 05:10:10;;;;;;;1.90;1.50;;;18.50;99.90;;;;;;5101981;28;20619;-88
2022/06/25 05:15:33;;;;;;;2.17;1.43;;;18.70;99.90;;;;;;5051307;28;20655;-88
2022/06/25 05:18:00;;;;;;;2.23;1.27;;;17.70;99.90;;;;;;5061749;28;20654;-87
2022/06/25 05:20:27;;;;;;;1.73;1.63;;;17.40;99.90;;;;;;5070414;28;20648;-87
2022/06/25 05:22:55;;;;;;;2.67;1.83;;;17.20;99.90;;;;;;5072120;28;20651;-86
2022/06/25 05:25:22;;;;;;;6.80;2.10;;;17.60;99.90;;;;;;5075338;28;20998;-87
2022/06/25 05:27:49;;;;;;;1.83;1.70;;;17.80;99.90;;;;;;5071323;28;20632;-87
2022/06/25 05:30:15;;;;;;;2.80;1.90;;;17.40;99.90;;;;;;5075814;28;20656;-83
2022/06/25 05:32:42;;;;;;;2.60;1.60;;;17.40;99.90;;;;;;5066282;28;20756;-83
2022/06/25 05:35:09;;;;;;;5.53;1.73;;;17.30;99.90;;;;;;5078921;28;20647;-84
2022/06/25 05:37:37;;;;;;;2.63;1.50;;;17.30;99.90;;;;;;5074113;28;20663;-84
2022/06/25 05:40:06;;;;;;;1.73;1.60;;;17.20;99.90;;;;;;5080142;28;20656;-84
2022/06/25 05:42:34;;;;;;;3.30;1.90;;;17.20;99.90;;;;;;5077809;28;20635;-84
2022/06/25 05:45:00;;;;;;;2.90;1.80;;;17.30;99.90;;;;;;5080129;28;21000;-84
2022/06/25 05:47:27;;;;;;;1.90;1.63;;;17.40;99.90;;;;;;5071686;28;20661;-83
2022/06/25 05:49:54;;;;;;;3.27;1.53;;;17.40;99.90;;;;;;5073927;28;20664;-84
2022/06/25 05:55:02;;;;;;;1.57;1.43;;;17.60;99.90;;;;;;5075123;28;20831;-84
2022/06/25 06:00:13;;;;;;;5.90;1.50;;;17.40;99.90;;;;;;5074361;28;20662;-84
2022/06/25 06:02:39;;;;;;;3.33;1.70;;;17.40;99.90;;;;;;5074802;28;21542;-84
2022/06/25 06:05:07;;;;;;;4.00;1.50;;;17.50;99.90;;;;;;5077029;28;20623;-84
2022/06/25 06:07:34;;;;;;;1.83;1.33;;;17.70;99.90;;;;;;5078566;28;20711;-82
2022/06/25 06:10:00;;;;;;;1.80;1.70;;;17.70;99.90;;;;;;5079572;28;20662;-83
2022/06/25 06:12:28;;;;;;;2.40;1.60;;;17.70;99.90;;;;;;5081683;28;20624;-84
2022/06/25 06:14:56;;;;;;;2.00;1.50;;;17.90;99.90;;;;;;5081051;28;20624;-83
2022/06/25 06:17:23;;;;;;;2.90;1.20;;;18.00;99.90;;;;;;5071888;28;20646;-84
2022/06/25 06:19:52;;;;;;;1.90;1.40;;;18.10;99.90;;;;;;5065547;28;21288;-84
2022/06/25 06:22:23;;;;;;;2.97;1.43;;;18.00;99.90;;;;;;5065095;28;20629;-84
2022/06/25 06:24:53;;;;;;;1.80;1.70;;;18.00;99.90;;;;;;5063986;28;20617;-83
2022/06/25 06:27:20;;;;;;;3.80;2.17;;;18.10;99.90;;;;;;5063760;28;20645;-85
2022/06/25 06:29:47;;;;;;;2.27;1.57;;;18.00;99.90;;;;;;5063940;28;20660;-83
2022/06/25 06:32:15;;;;;;;1.93;1.43;;;18.10;99.90;;;;;;5062577;28;20651;-82
2022/06/25 06:34:42;;;;;;;3.63;2.07;;;18.30;99.90;;;;;;5062256;28;20737;-82
2022/06/25 06:37:10;;;;;;;1.63;1.43;;;18.40;99.90;;;;;;5062647;28;20622;-82
2022/06/25 06:39:37;;;;;;;1.80;1.40;;;18.50;99.90;;;;;;5061718;28;20658;-83
2022/06/25 06:42:04;;;;;;;1.60;1.33;;;18.60;99.90;;;;;;5062600;28;21245;-83
2022/06/25 06:44:30;;;;;;;3.13;1.73;;;18.70;99.90;;;;;;5058678;28;20617;-83
2022/06/25 06:46:57;;;;;;;2.73;1.40;;;18.80;99.90;;;;;;5063378;28;20977;-83
2022/06/25 06:49:25;;;;;;;2.50;1.27;;;18.90;99.90;;;;;;5057283;28;20653;-83
2022/06/25 06:51:52;;;;;;;1.63;1.50;;;19.10;99.90;;;;;;5062189;28;20640;-83
2022/06/25 06:54:19;;;;;;;2.07;1.73;;;19.20;99.90;;;;;;5057997;28;20976;-84
2022/06/25 06:56:46;;;;;;;2.27;1.77;;;19.20;99.90;;;;;;5062158;28;20668;-82
2022/06/25 06:59:13;;;;;;;2.57;1.50;;;19.40;99.90;;;;;;5065122;28;20657;-83
2022/06/25 07:01:41;;;;;;;1.20;1.00;;;19.40;99.90;;;;;;5060750;28;20632;-82
2022/06/25 07:04:07;;;;;;;1.53;1.23;;;19.50;99.90;;;;;;5064527;28;21112;-82
2022/06/25 07:06:36;;;;;;;2.50;1.40;;;19.40;99.90;;;;;;5062606;28;20697;-82
2022/06/25 07:09:03;;;;;;;1.40;1.20;;;19.50;99.90;;;;;;5062482;28;20657;-82
2022/06/25 07:11:30;;;;;;;2.43;1.87;;;19.60;99.90;;;;;;5059817;28;20666;-82
2022/06/25 07:14:02;;;;;;;1.67;1.57;;;19.80;99.90;;;;;;5063657;28;20625;-84
2022/06/25 07:16:29;;;;;;;2.30;1.20;;;19.80;99.90;;;;;;5065206;28;20648;-82
2022/06/25 07:18:57;;;;;;;1.73;1.30;;;19.90;99.90;;;;;;5060318;28;21011;-82
2022/06/25 07:21:25;;;;;;;1.40;1.30;;;20.10;99.90;;;;;;5059922;28;21190;-82
2022/06/25 07:23:54;;;;;;;3.20;1.70;;;20.20;99.90;;;;;;5058944;28;20634;-82
2022/06/25 07:26:23;;;;;;;2.63;1.60;;;20.30;99.90;;;;;;5062832;28;20664;-82
2022/06/25 07:28:53;;;;;;;1.53;1.33;;;20.30;99.90;;;;;;5059017;28;20668;-82
2022/06/25 07:31:20;;;;;;;1.80;1.20;;;20.40;99.90;;;;;;5063363;28;21055;-82
2022/06/25 07:33:47;;;;;;;8.30;1.10;;;20.50;99.90;;;;;;5058451;28;20632;-82
2022/06/25 07:36:14;;;;;;;2.90;1.00;;;20.50;99.90;;;;;;5059433;28;21057;-83
2022/06/25 07:38:41;;;;;;;1.50;1.40;;;20.60;99.90;;;;;;5062905;28;20653;-84
2022/06/25 07:41:09;;;;;;;2.03;1.43;;;20.80;99.90;;;;;;5058245;28;20640;-82
2022/06/25 07:43:36;;;;;;;1.90;1.63;;;20.90;99.90;;;;;;5056755;28;20637;-82
2022/06/25 07:46:04;;;;;;;1.50;1.40;;;21.00;99.90;;;;;;5060271;28;20625;-82
2022/06/25 07:48:31;;;;;;;1.30;1.20;;;21.10;99.90;;;;;;5057436;28;20660;-82
2022/06/25 07:53:42;;;;;;;2.93;1.03;;;21.10;99.90;;;;;;5061761;28;20628;-82
2022/06/25 07:56:10;;;;;;;2.30;1.20;;;21.10;99.90;;;;;;5059041;28;20625;-82
2022/06/25 07:58:37;;;;;;;2.43;1.40;;;21.10;99.90;;;;;;5062586;28;20667;-82
2022/06/25 08:01:04;;;;;;;1.80;1.33;;;21.10;99.90;;;;;;5056731;28;20632;-82
2022/06/25 08:03:31;;;;;;;0.90;0.90;;;21.20;99.90;;;;;;5058158;28;21096;-82
2022/06/25 08:05:58;;;;;;;1.80;1.23;;;21.30;99.90;;;;;;5060615;28;20641;-82
2022/06/25 08:08:25;;;;;;;1.43;1.10;;;21.40;99.90;;;;;;5062004;28;20680;-82
2022/06/25 08:10:54;;;;;;;2.00;1.40;;;21.60;99.90;;;;;;5058644;28;20629;-82
2022/06/25 08:13:22;;;;;;;1.23;1.20;;;21.70;99.90;;;;;;5060565;28;20621;-82
2022/06/25 08:15:49;;;;;;;2.40;1.23;;;21.80;99.90;;;;;;5061429;28;20660;-82
2022/06/25 08:18:16;;;;;;;1.73;1.60;;;21.90;99.90;;;;;;5061681;28;20736;-82
2022/06/25 08:20:42;;;;;;;1.40;1.30;;;22.00;99.90;;;;;;5060159;28;20635;-81
2022/06/25 08:23:10;;;;;;;1.57;1.47;;;22.10;99.90;;;;;;5062924;28;20651;-82
2022/06/25 08:25:37;;;;;;;1.87;1.70;;;22.20;99.90;;;;;;5059789;28;21165;-82
2022/06/25 08:28:04;;;;;;;2.50;1.40;;;22.40;99.90;;;;;;5062469;28;20787;-82
2022/06/25 08:30:32;;;;;;;1.50;1.40;;;22.50;99.90;;;;;;5059252;28;21558;-82
2022/06/25 08:32:59;;;;;;;2.60;1.23;;;22.60;99.90;;;;;;5058039;28;20748;-81
2022/06/25 08:35:26;;;;;;;2.57;2.37;;;22.60;99.90;;;;;;5056501;28;20793;-81
2022/06/25 08:37:53;;;;;;;2.80;1.40;;;22.70;99.90;;;;;;5058203;28;20853;-82
2022/06/25 08:40:22;;;;;;;1.60;1.50;;;22.60;99.90;;;;;;5056353;28;21235;-82
2022/06/25 08:42:49;;;;;;;3.73;1.80;;;22.80;99.90;;;;;;5059492;28;20621;-82
2022/06/25 08:45:17;;;;;;;2.87;1.50;;;22.80;99.90;;;;;;5058549;28;20660;-82
2022/06/25 08:47:47;;;;;;;1.97;1.60;;;22.80;99.90;;;;;;5054940;28;20794;-82
2022/06/25 08:50:17;;;;;;;6.00;1.70;;;22.80;99.90;;;;;;5063548;28;20649;-81
2022/06/25 08:52:46;;;;;;;2.77;1.67;;;23.00;99.90;;;;;;5053530;28;20622;-81
2022/06/25 08:55:20;;;;;;;5.13;1.90;;;23.10;99.90;;;;;;5057262;28;20627;-82
2022/06/25 08:57:48;;;;;;;19.80;3.03;;;23.10;99.90;;;;;;5052051;28;20649;-82
2022/06/25 09:00:17;;;;;;;6.63;2.37;;;23.00;99.90;;;;;;5059919;28;20664;-81
2022/06/25 09:02:45;;;;;;;6.93;1.70;;;23.10;99.90;;;;;;5053677;28;20634;-82
2022/06/25 09:05:12;;;;;;;5.47;1.60;;;23.30;99.90;;;;;;5052606;28;20625;-82
2022/06/25 09:07:39;;;;;;;1.83;1.70;;;23.30;99.90;;;;;;5052058;28;20677;-82
2022/06/25 09:10:06;;;;;;;1.43;1.33;;;23.40;99.90;;;;;;5057689;28;20667;-82
2022/06/25 09:12:35;;;;;;;3.03;2.00;;;23.50;99.90;;;;;;5056351;28;20621;-82
2022/06/25 09:15:01;;;;;;;2.80;1.93;;;23.70;99.90;;;;;;5054412;28;20629;-82
2022/06/25 09:17:28;;;;;;;2.20;1.70;;;23.70;99.90;;;;;;5058596;28;20638;-82
2022/06/25 09:19:57;;;;;;;2.37;1.53;;;23.70;99.90;;;;;;5058098;28;20648;-82
2022/06/25 09:22:26;;;;;;;3.17;1.70;;;23.70;99.90;;;;;;5057690;28;20620;-82
2022/06/25 09:24:55;;;;;;;2.37;1.47;;;23.80;99.90;;;;;;5056682;28;21314;-82
2022/06/25 09:27:36;;;;;;;2.47;1.67;;;23.90;99.90;;;;;;5052507;28;20668;-82
2022/06/25 09:30:13;;;;;;;3.30;1.67;;;24.00;99.90;;;;;;5054559;28;20662;-82
2022/06/25 09:32:43;;;;;;;2.70;1.37;;;24.10;99.90;;;;;;5049993;28;20647;-81
2022/06/25 09:35:12;;;;;;;2.40;1.80;;;23.90;99.90;;;;;;5047792;28;20625;-82
2022/06/25 09:37:40;;;;;;;2.00;1.73;;;24.10;99.90;;;;;;5057169;28;20708;-82
2022/06/25 09:40:09;;;;;;;2.33;1.60;;;24.00;99.90;;;;;;5060151;28;20648;-82
2022/06/25 09:42:37;;;;;;;1.63;1.53;;;23.90;99.90;;;;;;5051441;28;20656;-82
2022/06/25 09:45:08;;;;;;;3.33;2.27;;;24.00;99.90;;;;;;5052250;28;20668;-82
2022/06/25 09:47:39;;;;;;;2.50;1.50;;;24.30;99.90;;;;;;5068563;28;20668;-82
2022/06/25 09:50:09;;;;;;;1.70;1.60;;;24.20;99.90;;;;;;5086346;28;20644;-82
2022/06/25 09:52:48;;;;;;;1.97;1.57;;;24.30;99.90;;;;;;5077243;28;20642;-82
2022/06/25 09:55:18;;;;;;;2.03;1.50;;;24.20;99.90;;;;;;5078482;28;20634;-82
2022/06/25 09:57:45;;;;;;;1.80;1.70;;;24.20;99.90;;;;;;5082353;28;20646;-82
2022/06/25 10:00:14;;;;;;;3.27;1.70;;;24.40;99.90;;;;;;5081267;28;20653;-82
2022/06/25 10:02:43;;;;;;;1.90;1.63;;;24.40;99.90;;;;;;5077010;28;20643;-82
2022/06/25 10:05:12;;;;;;;3.27;1.20;;;24.50;99.90;;;;;;5079672;28;20635;-82
2022/06/25 10:08:01;;;;;;;2.70;1.63;;;24.50;99.90;;;;;;5076774;28;21006;-82
2022/06/25 10:10:31;;;;;;;2.33;1.27;;;24.70;99.90;;;;;;5076919;28;20652;-82
2022/06/25 10:12:57;;;;;;;1.33;1.23;;;24.70;98.30;;;;;;5082078;28;20659;-82
2022/06/25 10:15:25;;;;;;;4.70;2.03;;;24.50;99.90;;;;;;5096628;28;21085;-82
2022/06/25 10:17:53;;;;;;;1.77;1.67;;;24.50;99.30;;;;;;5081800;28;21363;-82
2022/06/25 10:20:23;;;;;;;3.40;1.73;;;24.50;99.90;;;;;;5076006;28;20760;-82
2022/06/25 10:22:52;;;;;;;2.37;1.70;;;24.50;98.90;;;;;;5084155;28;21340;-82
2022/06/25 10:25:21;;;;;;;1.57;1.47;;;24.40;99.90;;;;;;5081859;28;20638;-81
2022/06/25 10:27:50;;;;;;;2.07;1.87;;;24.60;99.90;;;;;;5079638;28;20664;-82
2022/06/25 10:30:36;;;;;;;1.80;1.70;;;24.80;99.90;;;;;;5084282;28;20659;-81
2022/06/25 10:33:03;;;;;;;2.27;1.70;;;24.70;99.90;;;;;;5078996;28;21177;-81
2022/06/25 10:35:32;;;;;;;3.43;1.60;;;24.50;98.40;;;;;;5077852;28;20659;-81
2022/06/25 10:38:06;;;;;;;3.73;2.30;;;24.50;98.80;;;;;;5078772;28;20627;-81
2022/06/25 10:40:46;;;;;;;5.47;4.97;;;24.80;97.80;;;;;;5059719;28;21034;-82
2022/06/25 10:43:34;;;;;;;2.63;1.97;;;25.00;96.50;;;;;;5081545;28;20639;-82
2022/06/25 10:46:19;;;;;;;5.40;1.87;;;25.10;94.50;;;;;;5078047;28;20676;-82
2022/06/25 10:48:52;;;;;;;2.30;1.57;;;25.30;94.20;;;;;;5081690;28;20681;-82
2022/06/25 10:51:29;;;;;;;1.43;1.33;;;25.50;93.20;;;;;;5082889;28;20998;-82
2022/06/25 10:53:58;;;;;;;1.50;1.40;;;25.70;95.20;;;;;;5077119;28;20659;-82
2022/06/25 10:56:25;;;;;;;2.10;1.30;;;25.90;92.80;;;;;;5080006;28;20635;-82
2022/06/25 10:58:53;;;;;;;2.30;1.30;;;26.20;92.60;;;;;;5079136;28;20770;-82
2022/06/25 11:01:31;;;;;;;2.10;1.30;;;26.50;93.80;;;;;;5082257;28;20714;-82
2022/06/25 11:04:01;;;;;;;2.10;1.53;;;26.70;91.90;;;;;;5078206;28;20639;-81
2022/06/25 11:06:30;;;;;;;1.93;1.33;;;26.90;90.80;;;;;;5076644;28;20748;-82
2022/06/25 11:09:06;;;;;;;2.27;1.27;;;27.20;91.80;;;;;;5072510;28;20741;-82
2022/06/25 11:11:34;;;;;;;1.43;1.33;;;27.50;90.60;;;;;;5080368;28;20699;-82
2022/06/25 11:14:03;;;;;;;3.97;1.43;;;27.60;84.80;;;;;;5076354;28;20696;-82
2022/06/25 11:16:30;;;;;;;2.97;1.40;;;27.90;79.20;;;;;;5079893;28;20616;-82
2022/06/25 11:18:59;;;;;;;2.37;1.40;;;28.00;77.60;;;;;;5074733;28;20656;-82
2022/06/25 11:21:28;;;;;;;2.73;1.40;;;28.30;76.90;;;;;;5079812;28;20642;-82
2022/06/25 11:24:09;;;;;;;2.17;1.37;;;28.30;74.10;;;;;;5081719;28;20632;-81
2022/06/25 11:29:25;;;;;;;1.37;1.20;;;27.80;73.80;;;;;;5043944;28;20704;-81
2022/06/25 11:31:53;;;;;;;1.30;1.20;;;27.60;73.90;;;;;;5077606;28;20629;-81
2022/06/25 11:34:22;;;;;;;2.13;1.43;;;27.70;72.20;;;;;;5076832;28;20715;-81
2022/06/25 11:37:00;;;;;;;1.30;1.17;;;27.90;69.90;;;;;;5075741;28;20630;-81
2022/06/25 11:39:29;;;;;;;1.30;1.20;;;28.10;70.40;;;;;;5078173;28;21198;-81
2022/06/25 11:41:56;;;;;;;1.30;1.20;;;28.30;67.60;;;;;;5076695;28;21132;-81
2022/06/25 11:44:23;;;;;;;2.23;1.13;;;28.50;66.60;;;;;;5077947;28;20794;-81
2022/06/25 11:46:51;;;;;;;2.27;1.27;;;28.70;68.10;;;;;;5076614;28;20629;-81
2022/06/25 11:49:20;;;;;;;1.23;1.10;;;29.20;69.60;;;;;;5076867;28;20760;-81
2022/06/25 11:51:49;;;;;;;1.27;1.17;;;29.60;68.60;;;;;;5076183;28;20639;-81
2022/06/25 11:54:17;;;;;;;1.70;1.60;;;29.90;66.70;;;;;;5078169;28;20673;-81
2022/06/25 11:56:51;;;;;;;2.50;1.53;;;30.20;64.30;;;;;;5071108;28;20625;-81
2022/06/25 11:59:26;;;;;;;3.23;1.77;;;30.30;63.20;;;;;;5075883;28;20666;-81
2022/06/25 12:01:53;;;;;;;4.80;2.33;;;30.20;62.40;;;;;;5073682;28;21168;-81
2022/06/25 12:04:20;;;;;;;2.80;1.70;;;30.40;59.70;;;;;;5077987;28;20747;-81
2022/06/25 12:06:48;;;;;;;1.63;1.30;;;30.50;58.40;;;;;;5074479;28;20735;-81
2022/06/25 12:09:17;;;;;;;1.30;1.07;;;30.60;58.90;;;;;;5072951;28;20655;-81
2022/06/25 12:11:51;;;;;;;1.97;1.40;;;30.70;59.20;;;;;;5076789;28;21182;-81
2022/06/25 12:14:22;;;;;;;1.37;1.23;;;30.90;59.30;;;;;;5071980;28;20612;-81
2022/06/25 12:16:50;;;;;;;1.63;1.53;;;31.00;57.60;;;;;;5075486;28;21174;-83
2022/06/25 12:19:17;;;;;;;1.40;1.10;;;31.10;56.90;;;;;;5076283;28;20702;-83
2022/06/25 12:21:44;;;;;;;1.53;0.90;;;31.20;55.80;;;;;;5079706;28;20617;-82
2022/06/25 12:24:13;;;;;;;1.30;1.03;;;31.20;54.40;;;;;;5077851;28;20689;-80
2022/06/25 12:26:43;;;;;;;1.27;1.17;;;31.70;57.30;;;;;;5076509;28;20668;-80
2022/06/25 12:29:12;;;;;;;1.53;1.43;;;32.20;57.40;;;;;;5075418;28;20661;-80
2022/06/25 12:31:41;;;;;;;1.53;1.00;;;32.40;56.60;;;;;;5076529;28;20640;-80
2022/06/25 12:34:08;;;;;;;1.90;1.80;;;32.50;54.80;;;;;;5077662;28;20711;-80
2022/06/25 12:36:38;;;;;;;1.80;1.70;;;32.40;53.70;;;;;;5078717;28;20632;-80
2022/06/25 12:39:33;;;;;;;2.87;1.60;;;32.90;55.50;;;;;;5093001;28;20679;-80
2022/06/25 12:42:06;;;;;;;2.23;2.03;;;32.90;53.30;;;;;;5093713;28;20675;-80
2022/06/25 12:44:34;;;;;;;5.93;1.10;;;32.90;54.20;;;;;;5077853;28;20631;-80
2022/06/25 12:47:07;;;;;;;1.40;1.10;;;32.60;53.50;;;;;;5077068;28;20632;-80
2022/06/25 12:49:49;;;;;;;1.90;1.40;;;32.60;52.40;;;;;;5071845;28;20663;-81
2022/06/25 12:52:19;;;;;;;1.77;1.50;;;32.90;53.00;;;;;;5080813;28;20631;-80
2022/06/25 12:54:48;;;;;;;3.73;1.33;;;33.10;52.20;;;;;;5072274;28;20624;-81
2022/06/25 12:57:24;;;;;;;2.37;1.40;;;33.20;52.00;;;;;;5078554;28;20674;-80
2022/06/25 12:59:52;;;;;;;2.87;1.27;;;33.30;51.50;;;;;;5074554;28;20754;-81
2022/06/25 13:02:21;;;;;;;1.37;0.93;;;33.40;50.90;;;;;;5076081;28;21264;-81
2022/06/25 13:04:49;;;;;;;1.67;1.40;;;33.60;50.10;;;;;;5066117;28;20642;-81
2022/06/25 13:07:16;;;;;;;1.73;1.30;;;33.80;49.90;;;;;;5073871;28;21156;-80
2022/06/25 13:09:45;;;;;;;1.57;1.37;;;34.00;49.90;;;;;;5072678;28;20648;-81
2022/06/25 13:12:13;;;;;;;4.77;1.60;;;34.40;50.30;;;;;;5069309;28;20612;-81
2022/06/25 13:14:41;;;;;;;1.20;1.07;;;33.90;49.30;;;;;;5071791;28;20635;-81
2022/06/25 13:17:10;;;;;;;2.13;1.83;;;33.70;50.90;;;;;;5068810;28;20631;-80
2022/06/25 13:19:39;;;;;;;2.70;1.23;;;34.00;50.80;;;;;;5075464;28;20689;-81